Time;durP1;ratioP1;P1;durP2;ratioP2;P2;SDS_P1;SDS_P2;PMS_P1;PMS_P2;Temp;Humidity;BMP_temperature;BMP_pressure;BME280_temperature;BME280_humidity;BME280_pressure;Samples;Min_cycle;Max_cycle;Signal;HPM_P1;HPM_P2
2023/03/16 00:00:12;;;;;;;55.50;31.20;;;;;;;20.34;37.28;99335.36;108171;1253;73616;-61
2023/03/16 00:02:42;;;;;;;56.90;29.90;;;;;;;20.13;37.61;99338.17;108174;1253;62276;-66
2023/03/16 00:05:11;;;;;;;53.50;29.30;;;;;;;20.42;37.20;99332.24;108130;1253;61608;-62
2023/03/16 00:07:42;;;;;;;53.10;26.60;;;;;;;20.57;36.98;99328.30;108136;1253;72345;-65
2023/03/16 00:10:11;;;;;;;61.40;31.30;;;;;;;20.32;37.26;99325.01;108142;1253;71353;-64
2023/03/16 00:12:42;;;;;;;57.50;30.50;;;;;;;20.30;37.33;99328.01;108151;1253;70522;-63
2023/03/16 00:15:12;;;;;;;62.10;32.60;;;;;;;20.62;36.92;99326.90;108093;1253;60012;-68
2023/03/16 00:17:41;;;;;;;63.70;33.00;;;;;;;20.94;36.50;99322.23;108137;1253;61327;-65
2023/03/16 00:20:11;;;;;;;61.50;32.60;;;;;;;21.12;36.25;99321.06;108199;1253;73767;-65
2023/03/16 00:22:40;;;;;;;45.00;25.50;;;;;;;21.12;36.13;99314.84;108145;1253;71549;-65
2023/03/16 00:25:10;;;;;;;51.40;29.20;;;;;;;21.05;36.05;99312.97;108188;1253;73758;-68
2023/03/16 00:27:40;;;;;;;;;;;;;;;21.04;36.08;99312.15;108239;1253;62479;-66
2023/03/16 00:30:10;;;;;;;45.60;24.90;;;;;;;21.06;35.89;99313.61;108242;1252;61031;-65
2023/03/16 00:32:43;;;;;;;55.20;29.90;;;;;;;21.52;35.23;99316.26;108233;1253;73308;-65
2023/03/16 00:35:12;;;;;;;56.60;29.00;;;;;;;21.32;35.55;99318.02;108288;1252;69118;-66
2023/03/16 00:37:42;;;;;;;55.30;30.30;;;;;;;21.31;35.45;99318.20;108166;1253;72845;-65
2023/03/16 00:40:11;;;;;;;57.00;29.70;;;;;;;21.28;35.58;99316.05;108194;1252;62269;-66
2023/03/16 00:42:40;;;;;;;55.10;27.50;;;;;;;21.12;35.83;99318.72;108224;1254;60837;-66
2023/03/16 00:45:16;;;;;;;54.00;27.60;;;;;;;21.01;35.79;99321.60;108172;1253;71125;-67
2023/03/16 00:47:45;;;;;;;46.90;24.20;;;;;;;20.99;35.88;99319.60;108208;1252;70605;-65
2023/03/16 00:50:14;;;;;;;49.20;27.00;;;;;;;21.24;35.62;99323.12;108233;1253;73170;-65
2023/03/16 00:52:44;;;;;;;53.70;27.00;;;;;;;21.14;35.75;99324.98;108193;1252;62419;-65
2023/03/16 00:55:12;;;;;;;51.80;26.60;;;;;;;20.83;36.42;99323.38;108263;1252;60973;-66
2023/03/16 00:57:43;;;;;;;53.80;29.80;;;;;;;21.08;35.95;99321.98;108247;1252;71409;-67
2023/03/16 01:00:15;;;;;;;49.10;27.30;;;;;;;21.17;35.76;99320.73;108256;1253;70553;-65
2023/03/16 01:02:49;;;;;;;44.70;23.20;;;;;;;21.11;35.80;99324.23;108178;1253;72995;-65
2023/03/16 01:05:18;;;;;;;47.60;27.30;;;;;;;21.03;35.70;99322.96;108271;1253;60931;-67
2023/03/16 01:07:47;;;;;;;36.90;22.10;;;;;;;21.11;35.73;99322.08;108227;1255;59533;-65
2023/03/16 01:10:16;;;;;;;44.90;24.30;;;;;;;21.16;35.66;99321.36;108226;1252;72790;-66
2023/03/16 01:12:45;;;;;;;50.30;28.00;;;;;;;21.13;35.50;99325.06;108220;1253;70734;-64
2023/03/16 01:15:14;;;;;;;36.50;21.00;;;;;;;21.04;35.64;99326.30;108201;1253;71404;-64
2023/03/16 01:17:42;;;;;;;45.50;26.10;;;;;;;21.20;35.44;99333.05;108149;1254;61648;-63
2023/03/16 01:20:11;;;;;;;53.90;27.30;;;;;;;21.04;35.59;99337.85;108241;1253;59819;-63
2023/03/16 01:22:41;;;;;;;54.30;28.10;;;;;;;21.24;35.33;99340.63;108261;1253;73940;-66
2023/03/16 01:25:10;;;;;;;54.60;28.50;;;;;;;21.15;35.41;99339.13;108227;1257;70733;-68
2023/03/16 01:27:41;;;;;;;46.90;25.20;;;;;;;21.20;35.47;99339.54;108223;1253;72203;-67
2023/03/16 01:30:11;;;;;;;56.90;27.10;;;;;;;21.44;34.98;99339.65;108154;1253;60369;-68
2023/03/16 01:32:40;;;;;;;55.30;29.20;;;;;;;21.43;34.81;99343.89;108158;1253;61482;-65
2023/03/16 01:35:10;;;;;;;51.70;27.00;;;;;;;21.57;34.65;99341.15;108097;1253;71017;-67
2023/03/16 01:37:39;;;;;;;57.30;28.10;;;;;;;21.74;34.61;99342.33;108147;1253;69501;-68
2023/03/16 01:40:21;;;;;;;51.90;27.10;;;;;;;21.68;34.80;99342.73;108158;1253;73794;-65
2023/03/16 01:42:59;;;;;;;48.50;23.40;;;;;;;21.00;35.83;99347.73;108108;1254;61452;-65
2023/03/16 01:46:05;;;;;;;46.10;26.30;;;;;;;20.63;36.20;99345.96;108167;1253;60335;-67
2023/03/16 01:49:13;;;;;;;46.20;25.70;;;;;;;20.13;36.94;99346.83;108106;1256;72397;-67
2023/03/16 01:51:50;;;;;;;56.60;28.30;;;;;;;19.96;37.13;99346.04;108078;1254;70567;-67
2023/03/16 01:54:23;;;;;;;51.00;27.60;;;;;;;19.94;37.35;99345.69;108131;1253;72930;-67
2023/03/16 01:57:08;;;;;;;52.80;28.80;;;;;;;19.80;37.53;99350.14;108101;1253;61545;-66
2023/03/16 01:59:47;;;;;;;50.40;25.00;;;;;;;19.90;37.33;99360.66;108167;1253;61094;-67
2023/03/16 02:02:18;;;;;;;41.00;22.50;;;;;;;20.16;36.85;99355.81;108228;1253;72344;-67
2023/03/16 02:04:54;;;;;;;49.10;27.30;;;;;;;19.98;37.06;99354.55;108039;1253;71176;-65
2023/03/16 02:07:24;;;;;;;35.30;20.70;;;;;;;20.00;37.18;99356.23;108149;1253;73361;-68
2023/03/16 02:09:55;;;;;;;52.30;28.00;;;;;;;19.94;37.23;99355.64;108168;1253;62438;-66
2023/03/16 02:12:24;;;;;;;53.90;29.60;;;;;;;19.93;37.23;99353.97;108233;1253;61287;-67
2023/03/16 02:14:55;;;;;;;41.80;23.40;;;;;;;20.20;37.07;99354.27;108206;1256;75050;-66
2023/03/16 02:17:26;;;;;;;53.00;30.10;;;;;;;20.34;36.78;99356.17;108158;1253;71154;-67
2023/03/16 02:20:09;;;;;;;64.80;31.90;;;;;;;20.70;36.40;99361.55;108218;1256;73493;-66
2023/03/16 02:22:41;;;;;;;42.90;24.70;;;;;;;20.70;36.09;99363.13;108332;1254;60778;-66
2023/03/16 02:25:10;;;;;;;59.90;32.40;;;;;;;20.71;36.22;99367.66;108308;1254;60445;-66
2023/03/16 02:27:56;;;;;;;54.70;31.10;;;;;;;20.55;36.29;99366.79;108288;1253;74290;-64
2023/03/16 02:30:24;;;;;;;49.30;26.90;;;;;;;20.26;36.59;99377.17;108263;1253;70056;-65
2023/03/16 02:33:04;;;;;;;63.50;33.10;;;;;;;20.49;36.40;99379.30;108194;1254;72903;-65
2023/03/16 02:35:33;;;;;;;52.40;28.10;;;;;;;20.67;36.00;99375.15;108195;1253;62299;-65
2023/03/16 02:38:04;;;;;;;59.30;30.60;;;;;;;20.64;35.87;99374.34;108268;1252;60341;-65
2023/03/16 02:40:37;;;;;;;61.40;33.00;;;;;;;20.65;36.05;99369.13;108242;1256;74834;-66
2023/03/16 02:43:20;;;;;;;69.30;38.00;;;;;;;20.84;35.61;99361.66;108259;1254;69631;-64
2023/03/16 02:45:58;;;;;;;78.20;40.40;;;;;;;20.87;35.80;99359.10;108309;1256;72324;-65
2023/03/16 02:48:36;;;;;;;71.60;38.90;;;;;;;20.55;36.21;99352.67;108216;1257;61155;-65
2023/03/16 02:51:05;;;;;;;67.10;35.50;;;;;;;20.54;36.31;99350.11;108281;1253;61464;-65
2023/03/16 02:53:34;;;;;;;68.20;34.00;;;;;;;20.63;36.38;99352.32;108298;1253;75068;-64
2023/03/16 02:56:10;;;;;;;61.10;32.50;;;;;;;20.54;36.36;99349.55;108257;1255;70637;-65
2023/03/16 02:58:38;;;;;;;51.90;26.10;;;;;;;20.53;36.43;99355.18;108244;1254;72309;-70
2023/03/16 03:01:10;;;;;;;58.00;31.60;;;;;;;20.58;36.33;99361.23;108263;1252;62435;-65
2023/03/16 03:03:40;;;;;;;50.50;25.30;;;;;;;20.56;36.20;99353.48;108131;1254;61456;-65
2023/03/16 03:06:09;;;;;;;45.30;25.40;;;;;;;20.50;36.21;99363.31;108261;1253;74410;-66
2023/03/16 03:08:41;;;;;;;55.10;30.60;;;;;;;20.35;36.52;99369.84;108165;1254;71586;-66
2023/03/16 03:11:09;;;;;;;59.50;30.40;;;;;;;20.71;36.07;99366.91;108164;1257;72167;-67
2023/03/16 03:13:38;;;;;;;62.50;31.50;;;;;;;20.65;36.03;99366.38;108226;1254;61330;-66
2023/03/16 03:16:11;;;;;;;61.30;31.60;;;;;;;20.45;36.45;99369.12;108298;1254;60508;-65
2023/03/16 03:18:40;;;;;;;58.60;29.90;;;;;;;20.56;36.30;99371.38;108282;1253;75037;-68
2023/03/16 03:21:08;;;;;;;53.90;28.50;;;;;;;20.58;36.33;99367.10;108219;1254;71582;-66
2023/03/16 03:23:36;;;;;;;57.30;29.10;;;;;;;20.74;36.13;99365.45;108157;1257;73330;-66
2023/03/16 03:26:07;;;;;;;52.70;30.40;;;;;;;20.58;36.35;99371.89;108226;1256;62269;-66
2023/03/16 03:28:37;;;;;;;62.00;30.40;;;;;;;20.53;36.41;99376.99;108236;1256;61794;-67
2023/03/16 03:31:06;;;;;;;43.70;24.50;;;;;;;20.59;36.20;99374.30;108297;1254;74039;-65
2023/03/16 03:33:35;;;;;;;58.00;29.70;;;;;;;20.63;36.04;99370.59;108263;1253;70535;-67
2023/03/16 03:36:04;;;;;;;53.60;28.40;;;;;;;20.74;35.84;99371.14;108130;1254;71705;-64
2023/03/16 03:38:35;;;;;;;47.00;25.60;;;;;;;20.80;35.72;99379.58;108223;1255;62127;-63
2023/03/16 03:41:07;;;;;;;57.60;29.70;;;;;;;20.65;35.91;99376.98;108247;1255;59763;-62
2023/03/16 03:43:37;;;;;;;54.40;28.00;;;;;;;20.26;36.30;99380.29;108211;1255;72781;-65
2023/03/16 03:46:08;;;;;;;;;;;;;;;20.34;36.41;99385.98;108185;1254;70562;-64
2023/03/16 03:48:37;;;;;;;49.50;25.30;;;;;;;20.52;36.04;99383.48;108155;1255;73324;-65
2023/03/16 03:51:05;;;;;;;54.60;30.50;;;;;;;20.67;35.79;99378.36;108185;1254;60445;-63
2023/03/16 03:53:34;;;;;;;56.20;28.90;;;;;;;20.39;36.04;99379.09;108158;1254;60283;-66
2023/03/16 03:56:28;;;;;;;55.90;28.30;;;;;;;20.25;36.37;99380.39;107924;1253;74661;-67
2023/03/16 03:58:57;;;;;;;48.40;25.10;;;;;;;20.44;35.97;99381.84;108162;1254;71213;-66
2023/03/16 04:01:45;;;;;;;56.20;29.60;;;;;;;20.43;35.91;99383.01;108205;1256;72079;-67
2023/03/16 04:04:14;;;;;;;58.80;30.20;;;;;;;20.45;35.84;99388.02;108154;1254;61415;-67
2023/03/16 04:06:43;;;;;;;44.80;25.30;;;;;;;20.27;36.08;99386.92;108243;1254;60072;-65
2023/03/16 04:09:11;;;;;;;55.70;29.30;;;;;;;20.28;35.91;99384.86;108064;1257;74883;-65
2023/03/16 04:11:44;;;;;;;54.50;29.10;;;;;;;20.26;35.95;99388.96;108188;1254;71360;-66
2023/03/16 04:14:13;;;;;;;54.40;29.60;;;;;;;20.27;35.94;99385.86;108204;1254;71976;-67
2023/03/16 04:16:43;;;;;;;58.30;29.30;;;;;;;20.23;36.07;99388.78;108252;1256;62062;-66
2023/03/16 04:19:13;;;;;;;48.70;26.20;;;;;;;20.03;36.35;99389.23;108269;1254;60563;-65
2023/03/16 04:21:41;;;;;;;62.50;30.80;;;;;;;20.04;36.25;99391.45;108241;1254;73738;-66
2023/03/16 04:24:21;;;;;;;60.20;30.60;;;;;;;20.00;36.39;99395.40;108191;1253;70724;-64
2023/03/16 04:26:50;;;;;;;50.70;26.00;;;;;;;19.93;36.37;99391.20;108339;1253;72753;-68
2023/03/16 04:29:18;;;;;;;66.70;33.90;;;;;;;19.87;36.39;99391.21;108221;1253;60146;-66
2023/03/16 04:31:48;;;;;;;58.70;31.40;;;;;;;19.99;36.26;99396.69;108323;1253;61207;-65
2023/03/16 04:34:16;;;;;;;74.30;35.90;;;;;;;19.95;36.44;99394.23;108255;1254;74029;-65
2023/03/16 04:36:44;;;;;;;76.70;36.20;;;;;;;19.91;36.52;99391.90;108261;1252;71272;-65
2023/03/16 04:39:12;;;;;;;73.10;37.10;;;;;;;19.96;36.59;99396.60;108222;1255;70954;-65
2023/03/16 04:41:41;;;;;;;78.20;38.30;;;;;;;19.99;36.51;99403.68;108307;1253;62485;-67
2023/03/16 04:44:14;;;;;;;71.90;34.90;;;;;;;20.12;36.40;99405.91;108176;1254;61217;-67
2023/03/16 04:46:44;;;;;;;74.00;37.20;;;;;;;19.96;36.64;99406.78;108299;1254;74874;-67
2023/03/16 04:49:13;;;;;;;74.60;35.10;;;;;;;20.04;36.55;99414.09;108224;1253;71169;-67
2023/03/16 04:51:44;;;;;;;69.90;34.70;;;;;;;19.86;36.76;99413.52;108300;1252;73962;-67
2023/03/16 04:54:17;;;;;;;58.60;30.00;;;;;;;20.10;36.30;99417.48;108169;1254;62438;-66
2023/03/16 04:56:46;;;;;;;74.80;35.70;;;;;;;20.20;36.14;99423.89;108274;1252;60992;-66
2023/03/16 04:59:32;;;;;;;67.80;32.20;;;;;;;20.13;36.18;99423.61;108205;1254;74061;-66
2023/03/16 05:02:08;;;;;;;69.60;33.50;;;;;;;20.16;36.18;99421.77;108184;1254;70423;-67
2023/03/16 05:04:37;;;;;;;80.50;40.00;;;;;;;20.19;36.15;99423.15;108281;1254;72391;-67
2023/03/16 05:07:11;;;;;;;73.20;36.80;;;;;;;20.16;36.21;99424.40;108270;1254;62190;-67
2023/03/16 05:09:43;;;;;;;76.50;37.50;;;;;;;19.81;36.81;99422.35;108242;1255;61534;-68
2023/03/16 05:12:11;;;;;;;87.30;40.40;;;;;;;19.63;37.22;99428.31;108203;1254;75124;-66
2023/03/16 05:14:40;;;;;;;81.90;38.90;;;;;;;19.76;36.93;99433.64;108247;1254;71481;-68
2023/03/16 05:17:21;;;;;;;;;;;;;;;19.64;37.23;99439.81;108117;1257;73378;-68
2023/03/16 05:19:49;;;;;;;77.40;37.10;;;;;;;20.00;36.81;99445.44;108170;1253;61104;-66
2023/03/16 05:22:18;;;;;;;89.90;39.50;;;;;;;19.96;36.64;99446.67;108138;1254;61521;-65
2023/03/16 05:25:16;;;;;;;83.00;38.60;;;;;;;19.79;36.76;99446.90;108201;1254;73638;-67
2023/03/16 05:27:50;;;;;;;60.90;31.10;;;;;;;20.02;36.65;99451.48;108088;1254;71260;-68
2023/03/16 05:30:25;;;;;;;86.70;40.60;;;;;;;20.47;35.85;99461.70;108143;1254;72972;-67
2023/03/16 05:32:56;;;;;;;67.20;30.40;;;;;;;20.48;35.75;99466.06;108196;1255;60395;-66
2023/03/16 05:35:26;;;;;;;71.50;35.50;;;;;;;20.46;35.77;99469.98;108104;1254;60543;-67
2023/03/16 05:37:58;;;;;;;97.40;43.80;;;;;;;20.69;35.40;99469.20;108077;1254;74831;-66
2023/03/16 05:40:27;;;;;;;97.30;43.70;;;;;;;20.62;35.47;99473.19;108140;1254;70615;-68
2023/03/16 05:43:10;;;;;;;85.90;39.30;;;;;;;20.33;35.76;99479.98;108117;1253;73548;-68
2023/03/16 05:45:45;;;;;;;84.00;39.40;;;;;;;20.19;35.84;99485.12;108075;1254;61078;-68
2023/03/16 05:48:16;;;;;;;88.20;40.60;;;;;;;20.24;35.69;99481.88;108063;1253;61560;-66
2023/03/16 05:50:49;;;;;;;87.70;39.20;;;;;;;20.37;35.56;99484.33;108056;1254;73158;-67
2023/03/16 05:53:22;;;;;;;91.50;39.20;;;;;;;20.06;35.84;99483.29;108061;1254;71529;-66
2023/03/16 05:55:51;;;;;;;68.70;32.40;;;;;;;19.97;35.95;99488.25;108147;1254;73760;-68
2023/03/16 05:58:20;;;;;;;79.50;34.30;;;;;;;19.98;36.02;99491.43;108061;1254;62116;-68
2023/03/16 06:00:49;;;;;;;79.50;36.70;;;;;;;19.89;36.09;99494.31;108248;1252;61316;-67
2023/03/16 06:03:27;;;;;;;92.60;39.50;;;;;;;19.89;36.03;99496.48;108117;1254;72855;-68
2023/03/16 06:05:55;;;;;;;90.70;39.90;;;;;;;19.71;36.12;99494.76;108144;1252;68829;-69
2023/03/16 06:08:28;;;;;;;86.00;36.90;;;;;;;20.00;35.74;99490.91;108076;1254;72726;-68
2023/03/16 06:11:03;;;;;;;83.40;33.10;;;;;;;19.60;36.24;99497.98;108152;1254;62395;-68
2023/03/16 06:13:32;;;;;;;87.20;36.00;;;;;;;18.96;37.10;99503.85;108207;1253;60832;-67
2023/03/16 06:16:01;;;;;;;97.90;38.50;;;;;;;18.91;37.26;99507.33;108241;1254;74792;-66
2023/03/16 06:18:32;;;;;;;74.00;31.60;;;;;;;18.97;37.08;99507.88;108135;1252;70456;-68
2023/03/16 06:21:00;;;;;;;91.90;36.60;;;;;;;19.01;37.06;99504.31;108246;1253;71895;-67
2023/03/16 06:23:35;;;;;;;83.70;32.70;;;;;;;18.98;37.21;99512.58;108240;1253;61165;-67
2023/03/16 06:26:04;;;;;;;84.90;33.10;;;;;;;18.94;37.23;99520.02;108219;1254;61268;-66
2023/03/16 06:28:33;;;;;;;79.10;32.90;;;;;;;18.72;37.48;99523.98;108324;1251;74580;-63
2023/03/16 06:31:02;;;;;;;86.10;31.00;;;;;;;18.90;37.26;99525.14;108357;1256;68766;-65
2023/03/16 06:33:33;;;;;;;82.80;30.70;;;;;;;19.14;36.90;99531.38;108320;1255;73797;-66
2023/03/16 06:36:03;;;;;;;76.70;29.90;;;;;;;19.03;36.89;99530.63;108316;1251;61095;-66
2023/03/16 06:38:40;;;;;;;73.40;29.80;;;;;;;19.17;36.65;99527.05;108296;1257;61446;-67
2023/03/16 06:41:14;;;;;;;69.30;27.40;;;;;;;19.24;36.53;99529.89;108327;1251;74792;-67
2023/03/16 06:43:45;;;;;;;71.50;27.60;;;;;;;19.23;36.48;99532.77;108253;1251;70354;-66
2023/03/16 06:46:14;;;;;;;66.60;25.90;;;;;;;19.11;36.68;99533.39;108241;1251;73856;-68
2023/03/16 06:48:43;;;;;;;68.20;26.40;;;;;;;19.29;36.43;99526.95;108070;1251;62173;-68
2023/03/16 06:51:11;;;;;;;67.80;26.50;;;;;;;19.27;36.49;99528.38;108122;1251;60485;-66
2023/03/16 06:53:42;;;;;;;69.90;28.20;;;;;;;19.21;36.71;99532.76;108229;1251;74196;-66
2023/03/16 06:56:10;;;;;;;73.30;26.30;;;;;;;19.37;36.41;99539.60;108293;1251;70138;-68
2023/03/16 06:58:41;;;;;;;60.30;24.80;;;;;;;19.23;36.56;99541.34;108331;1251;70883;-66
2023/03/16 07:01:09;;;;;;;57.20;24.90;;;;;;;19.15;36.63;99544.85;108238;1251;61893;-65
2023/03/16 07:03:37;;;;;;;73.60;24.50;;;;;;;19.22;36.48;99542.88;108304;1251;60276;-68
2023/03/16 07:06:14;;;;;;;62.40;25.30;;;;;;;19.17;36.44;99544.52;108330;1251;74778;-65
2023/03/16 07:08:42;;;;;;;58.30;24.30;;;;;;;19.19;36.35;99545.39;108263;1251;69610;-65
2023/03/16 07:11:11;;;;;;;63.60;23.70;;;;;;;19.15;36.52;99549.28;108319;1251;73740;-68
2023/03/16 07:13:40;;;;;;;66.50;26.40;;;;;;;19.01;36.84;99545.58;108198;1251;61929;-66
2023/03/16 07:16:09;;;;;;;59.60;23.60;;;;;;;19.07;36.76;99553.34;108249;1256;60258;-66
2023/03/16 07:18:43;;;;;;;57.30;23.00;;;;;;;19.12;36.72;99554.14;108303;1251;75230;-67
2023/03/16 07:21:15;;;;;;;70.50;25.00;;;;;;;19.13;36.62;99553.67;108319;1251;68912;-66
2023/03/16 07:23:44;;;;;;;60.30;24.60;;;;;;;19.03;36.65;99557.88;108398;1256;72876;-65
2023/03/16 07:26:13;;;;;;;57.00;23.40;;;;;;;19.24;36.37;99559.90;108314;1251;62075;-67
2023/03/16 07:28:49;;;;;;;58.50;24.70;;;;;;;19.32;36.32;99563.73;108217;1254;61230;-66
2023/03/16 07:31:18;;;;;;;59.50;23.70;;;;;;;19.37;36.24;99570.09;108121;1254;74771;-67
2023/03/16 07:33:46;;;;;;;67.40;26.60;;;;;;;19.37;36.18;99572.33;108287;1253;69155;-67
2023/03/16 07:36:20;;;;;;;61.60;25.20;;;;;;;18.60;37.27;99574.84;108139;1253;73479;-68
2023/03/16 07:38:54;;;;;;;63.00;25.10;;;;;;;18.82;37.12;99577.34;108224;1252;62284;-67
2023/03/16 07:41:23;;;;;;;63.80;27.70;;;;;;;18.61;37.25;99580.95;108279;1253;61329;-66
2023/03/16 07:43:53;;;;;;;59.60;23.90;;;;;;;18.46;37.67;99579.66;108211;1252;75110;-66
2023/03/16 07:46:27;;;;;;;74.70;30.10;;;;;;;18.45;37.68;99584.39;108284;1253;71178;-68
2023/03/16 07:48:55;;;;;;;70.60;27.80;;;;;;;18.47;37.65;99591.17;108098;1254;73349;-68
2023/03/16 07:51:24;;;;;;;65.30;27.40;;;;;;;18.69;37.41;99592.08;108030;1253;62525;-66
2023/03/16 07:53:53;;;;;;;65.90;26.00;;;;;;;18.83;37.24;99590.45;108150;1253;61583;-64
2023/03/16 07:56:27;;;;;;;63.00;26.60;;;;;;;19.08;36.91;99596.44;108138;1253;75146;-64
2023/03/16 07:59:12;;;;;;;67.90;28.50;;;;;;;19.07;36.95;99596.18;108144;1253;71501;-67
2023/03/16 08:01:42;;;;;;;70.20;29.70;;;;;;;19.08;37.00;99603.43;108262;1254;73929;-67
2023/03/16 08:04:11;;;;;;;72.10;29.00;;;;;;;19.15;36.94;99600.55;108128;1254;60438;-66
2023/03/16 08:06:42;;;;;;;67.30;26.10;;;;;;;18.93;37.31;99603.67;108168;1252;61431;-66
2023/03/16 08:09:10;;;;;;;69.70;27.80;;;;;;;19.14;37.08;99608.76;108185;1254;73089;-67
2023/03/16 08:11:40;;;;;;;58.70;25.50;;;;;;;19.18;37.05;99610.64;108177;1256;68474;-66
2023/03/16 08:14:09;;;;;;;59.80;24.40;;;;;;;19.51;36.69;99606.85;108176;1253;71987;-65
2023/03/16 08:16:53;;;;;;;68.50;28.70;;;;;;;19.40;36.80;99605.08;108167;1253;61869;-66
2023/03/16 08:19:29;;;;;;;58.40;24.80;;;;;;;19.46;36.64;99600.24;108188;1253;61671;-66
2023/03/16 08:22:00;;;;;;;68.40;26.80;;;;;;;19.45;36.69;99601.13;108126;1254;74863;-67
2023/03/16 08:24:35;;;;;;;66.80;26.90;;;;;;;19.50;36.59;99598.14;108231;1253;71623;-65
2023/03/16 08:27:04;;;;;;;58.50;24.50;;;;;;;19.45;36.76;99595.76;108070;1251;73560;-67
2023/03/16 08:29:33;;;;;;;74.30;29.40;;;;;;;19.39;36.81;99599.61;108225;1251;62247;-68
2023/03/16 08:32:02;;;;;;;64.20;26.90;;;;;;;19.50;36.73;99603.36;108186;1256;61272;-66
2023/03/16 08:34:38;;;;;;;65.00;26.40;;;;;;;19.32;36.99;99605.21;108233;1254;74808;-67
2023/03/16 08:37:07;;;;;;;65.50;25.40;;;;;;;18.98;37.54;99603.80;108181;1251;70994;-66
2023/03/16 08:39:35;;;;;;;57.10;23.40;;;;;;;18.95;37.68;99601.38;108216;1251;73571;-67
2023/03/16 08:42:07;;;;;;;68.60;26.80;;;;;;;19.04;37.63;99602.88;108321;1251;60325;-67
2023/03/16 08:44:42;;;;;;;71.60;28.30;;;;;;;19.14;37.58;99607.73;108274;1251;59887;-67
2023/03/16 08:47:13;;;;;;;58.00;24.70;;;;;;;19.04;37.84;99610.45;108287;1251;75306;-68
2023/03/16 08:49:43;;;;;;;68.50;27.30;;;;;;;19.14;37.85;99609.82;108289;1251;71233;-68
2023/03/16 08:52:14;;;;;;;67.60;25.50;;;;;;;19.15;37.81;99615.30;108294;1251;71844;-69
2023/03/16 08:54:43;;;;;;;64.40;27.10;;;;;;;19.19;37.86;99619.42;108310;1251;62618;-71
2023/03/16 08:57:32;;;;;;;67.20;26.50;;;;;;;19.34;37.61;99623.15;108319;1251;61186;-68
2023/03/16 09:00:07;;;;;;;61.80;23.80;;;;;;;19.36;37.58;99627.85;108411;1251;74545;-67
2023/03/16 09:02:37;;;;;;;63.90;26.00;;;;;;;19.50;37.43;99624.67;108115;1251;70729;-68
2023/03/16 09:05:08;;;;;;;56.70;25.10;;;;;;;19.62;37.23;99624.26;108274;1251;73547;-68
2023/03/16 09:07:38;;;;;;;57.30;26.50;;;;;;;19.47;37.33;99628.16;108096;1251;62076;-68
2023/03/16 09:10:12;;;;;;;64.10;26.40;;;;;;;19.33;37.68;99634.14;108199;1251;61217;-68
2023/03/16 09:12:42;;;;;;;59.90;26.30;;;;;;;19.36;37.60;99637.58;108268;1251;75021;-67
2023/03/16 09:15:11;;;;;;;58.00;25.60;;;;;;;19.44;37.56;99640.38;108269;1251;70264;-68
2023/03/16 09:17:40;;;;;;;62.50;25.80;;;;;;;19.47;37.60;99644.02;108324;1251;72940;-67
2023/03/16 09:20:10;;;;;;;63.30;25.90;;;;;;;19.40;37.67;99645.12;108339;1251;61983;-68
2023/03/16 09:23:00;;;;;;;61.60;23.80;;;;;;;19.54;37.44;99648.61;108329;1251;60280;-68
2023/03/16 09:25:29;;;;;;;62.80;23.40;;;;;;;19.58;37.43;99652.42;108265;1251;74230;-68
2023/03/16 09:27:58;;;;;;;54.70;22.70;;;;;;;19.51;37.55;99656.31;108291;1251;70374;-68
2023/03/16 09:30:26;;;;;;;54.60;23.80;;;;;;;19.53;37.55;99656.33;108235;1252;73620;-67
2023/03/16 09:32:56;;;;;;;63.60;24.40;;;;;;;19.60;37.48;99659.20;108277;1254;62260;-67
2023/03/16 09:35:25;;;;;;;58.90;23.70;;;;;;;19.56;37.54;99658.23;108261;1252;60351;-67
2023/03/16 09:37:53;;;;;;;59.50;23.90;;;;;;;19.60;37.61;99660.40;108253;1252;74175;-68
2023/03/16 09:40:34;;;;;;;55.00;22.40;;;;;;;19.50;37.71;99661.90;108268;1256;70637;-67
2023/03/16 09:43:42;;;;;;;57.50;22.90;;;;;;;19.61;37.62;99662.63;108188;1253;72714;-65
2023/03/16 09:46:20;;;;;;;57.60;22.20;;;;;;;19.67;37.47;99661.31;108112;1253;60556;-67
2023/03/16 09:48:49;;;;;;;64.70;25.70;;;;;;;19.80;37.33;99663.78;108318;1253;61581;-68
2023/03/16 09:51:55;;;;;;;51.80;22.10;;;;;;;19.75;37.45;99663.50;108263;1253;73697;-67
2023/03/16 09:54:26;;;;;;;52.60;21.80;;;;;;;19.86;37.27;99662.89;108214;1253;69593;-68
2023/03/16 09:56:55;;;;;;;61.10;24.30;;;;;;;20.09;36.99;99669.23;108287;1253;72479;-68
2023/03/16 09:59:23;;;;;;;53.30;21.80;;;;;;;20.11;36.91;99668.90;108324;1253;60415;-67
2023/03/16 10:02:24;;;;;;;58.70;23.80;;;;;;;20.17;36.89;99669.92;108140;1253;60235;-68
2023/03/16 10:05:05;;;;;;;60.30;25.40;;;;;;;20.04;37.00;99669.31;108221;1253;73774;-68
2023/03/16 10:07:42;;;;;;;54.90;22.80;;;;;;;20.00;37.18;99670.36;108219;1252;69968;-65
2023/03/16 10:12:30;;;;;;;62.70;24.40;;;;;;;14.65;47.16;99677.63;104997;1289;600939;-68
2023/03/16 10:15:09;;;;;;;57.60;24.10;;;;;;;16.53;43.38;99675.43;107487;1263;61759;-67
2023/03/16 10:17:39;;;;;;;59.20;23.40;;;;;;;16.82;43.07;99673.95;107554;1260;60215;-68
2023/03/16 10:20:17;;;;;;;60.70;24.90;;;;;;;17.10;42.58;99671.84;107652;1261;71205;-68
2023/03/16 10:22:47;;;;;;;63.60;25.40;;;;;;;17.51;41.67;99677.95;107842;1260;70604;-68
2023/03/16 10:25:35;;;;;;;62.00;23.50;;;;;;;17.65;41.52;99681.36;107778;1257;114708;-68
2023/03/16 10:28:04;;;;;;;55.90;21.40;;;;;;;17.99;41.01;99678.49;107805;1257;62314;-67
2023/03/16 10:30:33;;;;;;;53.80;22.70;;;;;;;18.29;40.28;99674.48;107773;1257;60656;-68
2023/03/16 10:33:04;;;;;;;51.80;22.50;;;;;;;18.56;39.82;99675.38;107814;1257;70597;-67
2023/03/16 10:35:44;;;;;;;61.80;23.20;;;;;;;18.83;39.36;99677.27;107813;1257;71656;-67
2023/03/16 10:38:37;;;;;;;62.20;24.50;;;;;;;18.41;39.82;99680.09;107792;1257;71844;-68
2023/03/16 10:41:16;;;;;;;57.70;24.40;;;;;;;18.18;40.14;99682.41;107796;1257;60884;-68
2023/03/16 10:43:52;;;;;;;55.00;22.10;;;;;;;18.24;40.07;99689.55;107605;1259;60215;-69
2023/03/16 10:46:21;;;;;;;50.80;21.60;;;;;;;18.46;39.72;99687.75;107802;1257;73067;-68
2023/03/16 10:48:53;;;;;;;56.60;22.10;;;;;;;18.76;39.24;99689.39;107844;1257;70886;-68
2023/03/16 10:51:24;;;;;;;50.10;20.60;;;;;;;18.79;39.13;99689.50;107737;1257;73527;-67
2023/03/16 10:53:53;;;;;;;57.20;22.60;;;;;;;18.78;39.06;99692.36;107609;1257;62294;-68
2023/03/16 10:56:24;;;;;;;65.10;25.00;;;;;;;18.87;38.89;99687.59;107800;1260;60234;-66
2023/03/16 10:58:52;;;;;;;67.10;24.00;;;;;;;18.79;38.86;99686.63;108239;1251;74262;-67
2023/03/16 11:01:26;;;;;;;57.60;23.20;;;;;;;19.25;38.28;99687.28;108230;1251;71779;-68
2023/03/16 11:03:55;;;;;;;60.80;24.00;;;;;;;19.47;37.85;99687.29;108230;1256;72299;-68
2023/03/16 11:06:47;;;;;;;58.20;22.70;;;;;;;19.39;37.94;99686.15;108211;1255;61142;-68
2023/03/16 11:09:40;;;;;;;61.60;22.50;;;;;;;19.52;37.59;99685.41;108205;1251;60591;-65
2023/03/16 11:12:29;;;;;;;66.70;25.00;;;;;;;19.80;37.32;99682.81;108321;1251;73299;-65
2023/03/16 11:15:17;;;;;;;50.10;21.20;;;;;;;19.82;37.10;99686.27;108191;1254;70020;-65
2023/03/16 11:17:53;;;;;;;60.20;23.40;;;;;;;19.44;37.79;99687.13;108350;1251;72148;-66
2023/03/16 11:20:25;;;;;;;56.00;23.40;;;;;;;19.53;37.40;99688.40;108245;1251;62264;-67
2023/03/16 11:23:02;;;;;;;57.00;22.90;;;;;;;19.54;37.36;99689.40;108144;1251;61550;-68
2023/03/16 11:26:00;;;;;;;56.10;22.90;;;;;;;19.30;37.49;99690.09;108071;1251;72316;-67
2023/03/16 11:28:44;;;;;;;55.90;22.10;;;;;;;18.96;38.17;99690.23;108356;1251;71206;-66
2023/03/16 11:31:12;;;;;;;54.30;20.50;;;;;;;19.12;38.02;99687.58;108295;1251;72859;-67
2023/03/16 11:33:41;;;;;;;56.20;22.40;;;;;;;19.16;37.90;99688.68;108309;1251;61427;-66
2023/03/16 11:36:43;;;;;;;55.00;22.10;;;;;;;18.84;38.48;99693.73;108354;1251;60335;-66